createdAt,value
2023-04-02T00:02:20.803Z,82.80
2023-04-02T00:05:30.111Z,82.70
2023-04-02T00:07:59.866Z,82.30
2023-04-02T00:10:38.018Z,82.40
2023-04-02T00:13:10.970Z,81.80
2023-04-02T00:15:40.364Z,82.10
2023-04-02T00:18:07.626Z,82.40
2023-04-02T00:20:38.542Z,83.30
2023-04-02T00:23:06.654Z,82.00
2023-04-02T00:25:43.008Z,82.70
2023-04-02T00:28:14.587Z,83.30
2023-04-02T00:31:01.284Z,82.90
2023-04-02T00:33:31.393Z,81.40
2023-04-02T00:35:58.381Z,81.70
2023-04-02T00:38:28.437Z,81.70
2023-04-02T00:40:58.201Z,81.80
2023-04-02T00:43:27.977Z,82.30
2023-04-02T00:45:57.990Z,81.90
2023-04-02T00:48:46.588Z,81.30
2023-04-02T00:51:41.746Z,80.80
2023-04-02T00:54:16.061Z,81.00
2023-04-02T00:56:46.211Z,80.70
2023-04-02T00:59:28.062Z,80.50
2023-04-02T01:02:18.583Z,80.10
2023-04-02T01:05:19.782Z,80.60
2023-04-02T01:08:14.567Z,80.20
2023-04-02T01:10:47.643Z,80.80
2023-04-02T01:13:30.911Z,80.80
2023-04-02T01:16:20.671Z,80.20
2023-04-02T01:19:09.231Z,80.20
2023-04-02T01:21:42.229Z,80.30
2023-04-02T01:24:15.971Z,80.40
2023-04-02T01:26:59.313Z,80.60
2023-04-02T01:29:33.294Z,79.50
2023-04-02T01:32:07.613Z,79.90
2023-04-02T01:34:36.373Z,80.40
2023-04-02T01:37:28.676Z,80.20
2023-04-02T01:40:17.176Z,80.20
2023-04-02T01:43:15.524Z,80.10
2023-04-02T01:45:42.300Z,80.00
2023-04-02T01:48:19.847Z,79.60
2023-04-02T01:50:51.239Z,79.80
2023-04-02T01:53:20.452Z,79.90
2023-04-02T01:55:52.440Z,79.20
2023-04-02T01:58:25.286Z,79.80
2023-04-02T02:01:01.302Z,79.60
2023-04-02T02:03:29.242Z,78.80
2023-04-02T02:05:56.743Z,78.60
2023-04-02T02:08:38.499Z,78.10
2023-04-02T02:11:12.606Z,78.40
2023-04-02T02:13:41.565Z,78.90
2023-04-02T02:16:16.040Z,78.20
2023-04-02T02:18:43.715Z,78.30
2023-04-02T02:21:12.740Z,78.30
2023-04-02T02:23:39.711Z,78.20
2023-04-02T02:26:07.452Z,79.10
2023-04-02T02:28:39.217Z,78.40
2023-04-02T02:31:19.779Z,78.50
2023-04-02T02:33:58.234Z,78.00
2023-04-02T02:36:33.625Z,78.80
2023-04-02T02:39:11.417Z,78.00
2023-04-02T02:42:05.024Z,78.20
2023-04-02T02:44:35.242Z,77.70
2023-04-02T02:47:23.282Z,77.50
2023-04-02T02:49:54.180Z,78.10
2023-04-02T02:52:27.688Z,77.50
2023-04-02T02:55:16.447Z,77.20
2023-04-02T02:58:01.046Z,76.20
2023-04-02T03:00:35.466Z,76.30
2023-04-02T03:03:09.326Z,76.10
2023-04-02T03:05:38.956Z,75.70
2023-04-02T03:08:21.483Z,76.70
2023-04-02T03:11:13.402Z,77.00
2023-04-02T03:13:47.309Z,76.90
2023-04-02T03:16:27.427Z,76.90
2023-04-02T03:19:13.031Z,77.00
2023-04-02T03:21:51.328Z,78.60
2023-04-02T03:24:45.621Z,77.70
2023-04-02T03:27:19.033Z,78.90
2023-04-02T03:30:18.063Z,79.40
2023-04-02T03:32:49.296Z,79.70
2023-04-02T03:35:36.031Z,79.80
2023-04-02T03:38:37.222Z,79.70
2023-04-02T03:41:17.088Z,79.90
2023-04-02T03:43:48.139Z,80.30
2023-04-02T03:46:30.920Z,79.80
2023-04-02T03:49:07.651Z,79.00
2023-04-02T03:51:55.369Z,79.60
2023-04-02T03:54:22.807Z,79.70
2023-04-02T03:56:52.387Z,80.00
2023-04-02T03:59:41.411Z,79.30
2023-04-02T04:02:35.033Z,78.10
2023-04-02T04:05:04.324Z,78.70
2023-04-02T04:07:34.646Z,78.90
2023-04-02T04:10:03.078Z,79.20
2023-04-02T04:12:46.077Z,78.50
2023-04-02T04:15:35.095Z,79.30
2023-04-02T04:18:21.540Z,78.70
2023-04-02T04:20:58.413Z,78.30
2023-04-02T04:23:38.594Z,78.80
2023-04-02T04:26:41.298Z,78.30
2023-04-02T04:29:27.454Z,77.30
2023-04-02T04:31:55.977Z,76.90
2023-04-02T04:34:38.846Z,76.70
2023-04-02T04:37:07.881Z,75.90
2023-04-02T04:39:45.516Z,75.40
2023-04-02T04:42:23.956Z,76.10
2023-04-02T04:45:00.332Z,76.50
2023-04-02T04:47:40.592Z,75.30
2023-04-02T04:50:12.117Z,75.10
2023-04-02T04:52:42.470Z,75.00
2023-04-02T04:55:47.417Z,75.40
2023-04-02T04:58:29.905Z,74.80
2023-04-02T05:01:01.720Z,74.60
2023-04-02T05:03:43.248Z,74.80
2023-04-02T05:06:42.397Z,74.20
2023-04-02T05:09:22.573Z,74.50
2023-04-02T05:12:16.582Z,74.30
2023-04-02T05:15:12.485Z,73.80
2023-04-02T05:17:51.619Z,73.90
2023-04-02T05:20:35.466Z,73.90
2023-04-02T05:23:20.196Z,74.30
2023-04-02T05:26:02.938Z,73.80
2023-04-02T05:29:02.346Z,73.20
2023-04-02T05:32:02.239Z,72.70
2023-04-02T05:34:34.308Z,73.40
2023-04-02T05:37:06.959Z,72.60
2023-04-02T05:39:35.179Z,73.00
2023-04-02T05:42:08.393Z,73.70
2023-04-02T05:45:23.125Z,73.10
2023-04-02T05:47:54.096Z,72.60
2023-04-02T05:50:33.387Z,72.60
2023-04-02T05:53:04.405Z,72.10
2023-04-02T05:56:05.647Z,71.80
2023-04-02T05:58:45.698Z,72.00
2023-04-02T06:01:31.232Z,72.20
2023-04-02T06:04:19.662Z,71.90
2023-04-02T06:06:49.328Z,72.20
2023-04-02T06:09:28.364Z,71.60
2023-04-02T06:12:30.025Z,71.60
2023-04-02T06:14:57.989Z,70.00
2023-04-02T06:17:28.316Z,71.10
2023-04-02T06:19:59.252Z,70.70
2023-04-02T06:22:39.427Z,71.20
2023-04-02T06:25:25.251Z,70.70
2023-04-02T06:27:55.867Z,69.50
2023-04-02T06:30:34.355Z,69.40
2023-04-02T06:33:03.299Z,69.70
2023-04-02T06:35:35.703Z,69.70
2023-04-02T06:38:06.359Z,69.20
2023-04-02T06:40:39.263Z,69.50
2023-04-02T06:43:33.399Z,69.20
2023-04-02T06:46:46.973Z,68.70
2023-04-02T06:49:38.641Z,68.50
2023-04-02T06:52:18.118Z,67.90
2023-04-02T06:54:44.889Z,68.80
2023-04-02T06:57:13.665Z,68.00
2023-04-02T06:59:42.964Z,68.00
2023-04-02T07:02:37.086Z,67.80
2023-04-02T07:05:11.878Z,68.20
2023-04-02T07:07:44.291Z,67.10
2023-04-02T07:10:12.888Z,67.70
2023-04-02T07:12:40.055Z,67.20
2023-04-02T07:15:07.939Z,67.20
2023-04-02T07:17:35.198Z,67.40
2023-04-02T07:20:02.217Z,66.30
2023-04-02T07:22:29.654Z,67.00
2023-04-02T07:24:59.974Z,67.20
2023-04-02T07:27:28.037Z,66.90
2023-04-02T07:29:54.922Z,66.20
2023-04-02T07:32:21.734Z,66.70
2023-04-02T07:34:49.083Z,66.70
2023-04-02T07:37:16.584Z,66.20
2023-04-02T07:39:46.441Z,66.50
2023-04-02T07:42:13.314Z,66.70
2023-04-02T07:44:40.455Z,66.50
2023-04-02T07:47:08.628Z,66.70
2023-04-02T07:49:35.468Z,65.80
2023-04-02T07:52:02.309Z,65.70
2023-04-02T07:54:30.365Z,66.40
2023-04-02T07:56:57.186Z,66.20
2023-04-02T07:59:24.037Z,65.20
2023-04-02T08:01:52.734Z,64.50
2023-04-02T08:04:21.672Z,65.50
2023-04-02T08:06:49.518Z,64.40
2023-04-02T08:09:17.241Z,64.80
2023-04-02T08:11:44.074Z,64.60
2023-04-02T08:14:11.112Z,64.40
2023-04-02T08:16:52.550Z,65.10
2023-04-02T08:19:19.700Z,64.20
2023-04-02T08:21:50.360Z,64.50
2023-04-02T08:24:19.228Z,64.50
2023-04-02T08:26:47.741Z,63.50
2023-04-02T08:29:15.315Z,63.80
2023-04-02T08:31:42.299Z,63.70
2023-04-02T08:34:09.626Z,63.50
2023-04-02T08:36:38.818Z,63.90
2023-04-02T08:39:10.854Z,64.40
2023-04-02T08:41:47.141Z,63.80
2023-04-02T08:44:32.369Z,64.30
2023-04-02T08:47:09.012Z,64.10
2023-04-02T08:49:51.219Z,64.00
2023-04-02T08:52:28.401Z,63.70
2023-04-02T08:54:58.043Z,64.20
2023-04-02T08:57:48.899Z,64.20
2023-04-02T09:00:15.782Z,64.50
2023-04-02T09:02:52.974Z,65.20
2023-04-02T09:05:28.184Z,65.00
2023-04-02T09:07:58.240Z,64.40
2023-04-02T09:10:38.778Z,63.70
2023-04-02T09:13:20.131Z,64.10
2023-04-02T09:15:47.808Z,63.50
2023-04-02T09:18:17.920Z,63.40
2023-04-02T09:20:48.033Z,63.00
2023-04-02T09:23:22.418Z,63.30
2023-04-02T09:26:03.995Z,63.70
2023-04-02T09:28:31.557Z,63.40
2023-04-02T09:31:23.081Z,63.50
2023-04-02T09:33:53.059Z,64.00
2023-04-02T09:36:33.455Z,63.80
2023-04-02T09:39:07.179Z,64.00
2023-04-02T09:41:37.093Z,63.90
2023-04-02T09:44:25.354Z,64.00
2023-04-02T09:47:03.873Z,63.90
2023-04-02T09:49:34.168Z,63.70
2023-04-02T09:52:21.676Z,63.40
2023-04-02T09:55:15.336Z,63.60
2023-04-02T09:57:43.152Z,63.60
2023-04-02T10:00:31.959Z,63.20
2023-04-02T10:03:23.338Z,62.90
2023-04-02T10:06:14.189Z,62.90
2023-04-02T10:08:43.701Z,62.30
2023-04-02T10:11:13.656Z,62.70
2023-04-02T10:13:51.109Z,62.20
2023-04-02T10:16:48.209Z,62.70
2023-04-02T10:19:36.868Z,62.60
2023-04-02T10:22:12.195Z,62.40
2023-04-02T10:24:39.782Z,62.40
2023-04-02T10:27:18.185Z,62.50
2023-04-02T10:30:02.643Z,62.50
2023-04-02T10:32:55.779Z,62.60
2023-04-02T10:35:46.162Z,62.10
2023-04-02T10:38:58.338Z,61.40
2023-04-02T10:41:47.871Z,62.20
2023-04-02T10:47:41.085Z,62.40
2023-04-02T10:50:08.099Z,62.00
2023-04-02T10:53:08.782Z,62.20
2023-04-02T10:55:43.092Z,62.20
2023-04-02T10:58:27.621Z,60.60
2023-04-02T11:01:06.798Z,60.80
2023-04-02T11:03:45.648Z,61.30
2023-04-02T11:06:24.331Z,60.90
2023-04-02T11:08:56.942Z,60.20
2023-04-02T11:11:27.290Z,60.80
2023-04-02T11:14:13.118Z,61.10
2023-04-02T11:16:44.015Z,60.80
2023-04-02T11:19:17.532Z,60.50
2023-04-02T11:21:59.375Z,60.20
2023-04-02T11:24:32.800Z,60.00
2023-04-02T11:27:11.811Z,59.70
2023-04-02T11:29:59.401Z,58.90
2023-04-02T11:32:28.142Z,59.70
2023-04-02T11:35:05.765Z,57.50
2023-04-02T11:37:43.226Z,58.20
2023-04-02T11:40:16.006Z,58.70
2023-04-02T11:42:50.311Z,58.60
2023-04-02T11:45:23.147Z,57.20
2023-04-02T11:48:02.361Z,58.00
2023-04-02T11:50:33.538Z,57.10
2023-04-02T11:53:12.830Z,56.50
2023-04-02T11:55:45.443Z,55.90
2023-04-02T11:58:25.346Z,55.30
2023-04-02T12:01:23.387Z,55.80
2023-04-02T12:04:04.956Z,56.50
2023-04-02T12:06:34.891Z,56.80
2023-04-02T12:09:27.574Z,57.00
2023-04-02T12:11:57.716Z,56.40
2023-04-02T12:14:35.072Z,56.20
2023-04-02T12:17:05.787Z,55.90
2023-04-02T12:19:33.885Z,56.00
2023-04-02T12:22:01.598Z,56.20
2023-04-02T12:24:31.355Z,56.00
2023-04-02T12:27:18.264Z,55.20
2023-04-02T12:29:45.007Z,54.70
2023-04-02T12:32:29.788Z,55.30
2023-04-02T12:34:58.338Z,54.50
2023-04-02T12:37:29.545Z,54.40
2023-04-02T12:40:16.047Z,55.00
2023-04-02T12:42:42.951Z,54.90
2023-04-02T12:45:26.607Z,54.00
2023-04-02T12:47:55.726Z,54.30
2023-04-02T12:50:23.136Z,54.50
2023-04-02T12:52:53.199Z,54.40
2023-04-02T12:55:22.744Z,54.70
2023-04-02T12:57:54.568Z,54.80
2023-04-02T13:00:21.236Z,53.80
2023-04-02T13:03:06.443Z,54.10
2023-04-02T13:05:42.449Z,53.60
2023-04-02T13:08:19.910Z,54.00
2023-04-02T13:10:54.191Z,54.80
2023-04-02T13:13:27.794Z,55.20
2023-04-02T13:16:17.366Z,54.70
2023-04-02T13:18:46.626Z,55.20
2023-04-02T13:21:19.556Z,53.60
2023-04-02T13:23:46.674Z,54.50
2023-04-02T13:26:24.272Z,54.20
2023-04-02T13:29:32.785Z,52.60
2023-04-02T13:32:05.186Z,52.50
2023-04-02T13:34:32.180Z,52.00
2023-04-02T13:36:59.321Z,52.30
2023-04-02T13:39:27.094Z,52.80
2023-04-02T13:42:04.078Z,53.40
2023-04-02T13:44:32.936Z,53.50
2023-04-02T13:47:00.638Z,52.80
2023-04-02T13:49:28.072Z,52.70
2023-04-02T13:52:00.167Z,53.70
2023-04-02T13:54:54.595Z,53.40
2023-04-02T13:57:21.450Z,53.00
2023-04-02T13:59:48.282Z,52.00
2023-04-02T14:02:21.773Z,50.90
2023-04-02T14:04:51.659Z,51.50
2023-04-02T14:07:37.231Z,52.20
2023-04-02T14:10:19.148Z,52.10
2023-04-02T14:12:59.259Z,51.70
2023-04-02T14:15:45.900Z,50.50
2023-04-02T14:18:44.075Z,51.50
2023-04-02T14:21:46.257Z,50.70
2023-04-02T14:24:31.715Z,49.70
2023-04-02T14:27:13.153Z,50.60
2023-04-02T14:30:03.591Z,51.10
2023-04-02T14:33:06.281Z,50.80
2023-04-02T14:35:46.905Z,51.00
2023-04-02T14:38:28.315Z,50.30
2023-04-02T14:41:13.763Z,49.80
2023-04-02T14:43:54.039Z,50.20
2023-04-02T14:46:26.762Z,49.50
2023-04-02T14:48:58.813Z,50.00
2023-04-02T14:51:37.231Z,50.70
2023-04-02T14:54:12.770Z,50.30
2023-04-02T14:57:03.139Z,50.50
2023-04-02T14:59:50.094Z,51.10
2023-04-02T15:02:21.662Z,51.00
2023-04-02T15:05:00.673Z,51.50
2023-04-02T15:07:37.168Z,51.80
2023-04-02T15:10:25.776Z,52.00
2023-04-02T15:12:55.419Z,52.40
2023-04-02T15:15:40.755Z,52.50
2023-04-02T15:18:16.461Z,52.40
2023-04-02T15:21:09.227Z,52.10
2023-04-02T15:23:51.441Z,52.70
2023-04-02T15:26:41.246Z,52.50
2023-04-02T15:29:29.666Z,51.70
2023-04-02T15:32:25.915Z,51.80
2023-04-02T15:35:27.169Z,52.10
2023-04-02T15:38:13.304Z,51.80
2023-04-02T15:41:06.572Z,50.80
2023-04-02T15:43:43.788Z,50.70
2023-04-02T15:46:22.762Z,50.50
2023-04-02T15:49:09.307Z,50.60
2023-04-02T15:51:50.930Z,51.10
2023-04-02T15:54:40.974Z,50.90
2023-04-02T15:57:16.927Z,51.60
2023-04-02T16:00:19.860Z,51.90
2023-04-02T16:03:05.933Z,52.60
2023-04-02T16:05:56.177Z,51.90
2023-04-02T16:08:33.963Z,52.70
2023-04-02T16:11:00.888Z,53.20
2023-04-02T16:13:36.333Z,53.20
2023-04-02T16:16:24.265Z,53.90
2023-04-02T16:19:16.753Z,53.30
2023-04-02T16:21:52.635Z,53.60
2023-04-02T16:24:19.648Z,54.10
2023-04-02T16:27:26.853Z,53.80
2023-04-02T16:30:24.823Z,53.10
2023-04-02T16:33:02.260Z,53.40
2023-04-02T16:35:43.532Z,53.90
2023-04-02T16:38:57.845Z,53.40
2023-04-02T16:41:39.558Z,52.20
2023-04-02T16:44:18.321Z,52.30
2023-04-02T16:47:23.615Z,52.60
2023-04-02T16:50:15.487Z,53.30
2023-04-02T16:53:13.304Z,53.00
2023-04-02T16:55:43.535Z,52.20
2023-04-02T16:58:28.358Z,52.20
2023-04-02T17:01:01.306Z,52.70
2023-04-02T17:03:40.344Z,52.80
2023-04-02T17:06:16.792Z,53.10
2023-04-02T17:08:53.443Z,53.50
2023-04-02T17:11:40.749Z,53.50
2023-04-02T17:14:36.458Z,53.80
2023-04-02T17:17:04.663Z,54.40
2023-04-02T17:19:33.132Z,54.80
2023-04-02T17:22:03.251Z,54.40
2023-04-02T17:24:37.141Z,55.10
2023-04-02T17:27:26.688Z,55.00
2023-04-02T17:29:58.072Z,55.40
2023-04-02T17:32:36.866Z,55.90
2023-04-02T17:35:25.037Z,55.70
2023-04-02T17:38:05.146Z,55.60
2023-04-02T17:41:03.255Z,55.50
2023-04-02T17:43:49.971Z,55.40
2023-04-02T17:46:42.085Z,55.50
2023-04-02T17:49:22.969Z,55.10
2023-04-02T17:52:03.136Z,55.80
2023-04-02T17:54:42.644Z,55.70
2023-04-02T17:57:27.189Z,55.80
2023-04-02T18:00:24.226Z,55.90
2023-04-02T18:03:06.529Z,55.80
2023-04-02T18:05:46.385Z,56.30
2023-04-02T18:08:38.078Z,56.60
2023-04-02T18:11:40.072Z,56.60
2023-04-02T18:14:45.293Z,57.40
2023-04-02T18:17:52.261Z,57.50
2023-04-02T18:20:52.990Z,57.60
2023-04-02T18:23:45.973Z,58.20
2023-04-02T18:26:23.496Z,57.90
2023-04-02T18:29:02.752Z,58.30
2023-04-02T18:31:56.853Z,57.70
2023-04-02T18:34:26.294Z,57.30
2023-04-02T18:37:19.471Z,58.00
2023-04-02T18:40:19.663Z,57.40
2023-04-02T18:42:48.947Z,57.00
2023-04-02T18:45:28.365Z,57.70
2023-04-02T18:48:15.097Z,56.80
2023-04-02T18:50:45.958Z,57.10
2023-04-02T18:53:16.005Z,57.30
2023-04-02T18:55:51.772Z,57.70
2023-04-02T18:58:41.009Z,57.60
2023-04-02T19:01:13.324Z,57.90
2023-04-02T19:04:05.093Z,57.80
2023-04-02T19:06:48.279Z,57.90
2023-04-02T19:09:30.295Z,58.70
2023-04-02T19:11:57.188Z,58.30
2023-04-02T19:14:24.167Z,59.00
2023-04-02T19:17:12.087Z,59.00
2023-04-02T19:20:03.768Z,59.20
2023-04-02T19:22:49.397Z,59.00
2023-04-02T19:25:33.007Z,59.10
2023-04-02T19:28:21.524Z,59.50
2023-04-02T19:31:17.733Z,59.90
2023-04-02T19:34:10.171Z,60.00
2023-04-02T19:36:54.675Z,60.40
2023-04-02T19:39:54.238Z,60.50
2023-04-02T19:42:42.150Z,60.40
2023-04-02T19:45:49.053Z,60.50
2023-04-02T19:48:18.795Z,60.70
2023-04-02T19:50:46.872Z,61.40
2023-04-02T19:53:14.658Z,61.80
2023-04-02T19:55:42.443Z,61.30
2023-04-02T19:58:36.012Z,61.30
2023-04-02T20:01:03.671Z,61.30
2023-04-02T20:03:31.327Z,61.10
2023-04-02T20:05:59.638Z,61.60
2023-04-02T20:08:27.719Z,62.10
2023-04-02T20:10:55.468Z,61.80
2023-04-02T20:13:22.298Z,62.00
2023-04-02T20:15:49.703Z,62.50
2023-04-02T20:18:16.387Z,62.70
2023-04-02T20:20:46.430Z,62.70
2023-04-02T20:23:13.222Z,62.20
2023-04-02T20:25:46.322Z,62.20
2023-04-02T20:28:13.504Z,62.10
2023-04-02T20:30:41.063Z,62.10
2023-04-02T20:33:08.143Z,61.70
2023-04-02T20:35:35.382Z,62.30
2023-04-02T20:38:06.331Z,62.10
2023-04-02T20:40:33.563Z,62.10
2023-04-02T20:43:00.446Z,62.20
2023-04-02T20:45:29.223Z,61.70
2023-04-02T20:47:56.599Z,61.60
2023-04-02T20:50:23.458Z,61.70
2023-04-02T20:52:50.954Z,62.10
2023-04-02T20:55:17.972Z,62.10
2023-04-02T20:57:44.743Z,62.10
2023-04-02T21:00:12.159Z,62.20
2023-04-02T21:02:38.975Z,62.30
2023-04-02T21:05:05.935Z,62.60
2023-04-02T21:07:32.701Z,62.60
2023-04-02T21:09:59.596Z,62.60
2023-04-02T21:12:26.685Z,63.30
2023-04-02T21:14:57.898Z,63.30
2023-04-02T21:17:25.953Z,63.70
2023-04-02T21:19:52.766Z,63.60
2023-04-02T21:22:19.525Z,64.00
2023-04-02T21:24:46.327Z,64.30
2023-04-02T21:27:13.215Z,64.30
2023-04-02T21:29:40.237Z,64.30
2023-04-02T21:32:20.249Z,64.20
2023-04-02T21:34:48.313Z,64.30
2023-04-02T21:37:15.445Z,64.70
2023-04-02T21:39:42.237Z,65.10
2023-04-02T21:42:11.078Z,65.10
2023-04-02T21:44:37.776Z,65.70
2023-04-02T21:47:04.614Z,65.80
2023-04-02T21:49:31.412Z,66.10
2023-04-02T21:51:58.172Z,65.20
2023-04-02T21:54:24.980Z,65.50
2023-04-02T21:56:52.494Z,65.40
2023-04-02T21:59:19.694Z,65.60
2023-04-02T22:01:49.112Z,65.50
2023-04-02T22:04:24.716Z,65.50
2023-04-02T22:06:52.941Z,65.10
2023-04-02T22:09:22.497Z,65.30
2023-04-02T22:11:52.719Z,65.20
2023-04-02T22:14:19.907Z,65.20
2023-04-02T22:16:46.699Z,64.60
2023-04-02T22:19:15.912Z,64.70
2023-04-02T22:21:43.129Z,64.70
2023-04-02T22:24:14.465Z,64.70
2023-04-02T22:26:41.563Z,65.20
2023-04-02T22:29:08.677Z,64.90
2023-04-02T22:31:35.631Z,64.30
2023-04-02T22:34:04.380Z,64.60
2023-04-02T22:36:31.990Z,64.50
2023-04-02T22:39:00.269Z,64.90
2023-04-02T22:41:29.411Z,65.00
2023-04-02T22:43:57.187Z,65.00
2023-04-02T22:46:25.090Z,64.90
2023-04-02T22:48:52.561Z,65.30
2023-04-02T22:51:21.076Z,65.30
2023-04-02T22:53:49.071Z,65.30
2023-04-02T22:56:18.968Z,65.60
2023-04-02T22:58:46.142Z,65.50
2023-04-02T23:01:19.415Z,65.40
2023-04-02T23:03:46.183Z,65.40
2023-04-02T23:06:15.607Z,65.40
2023-04-02T23:08:42.857Z,65.60
2023-04-02T23:11:18.345Z,66.10
2023-04-02T23:13:47.028Z,65.70
2023-04-02T23:16:14.241Z,65.60
2023-04-02T23:18:42.906Z,65.60
2023-04-02T23:21:10.205Z,66.00
2023-04-02T23:23:37.323Z,65.80
2023-04-02T23:26:31.494Z,65.70
2023-04-02T23:28:59.802Z,65.90
2023-04-02T23:31:27.222Z,65.80
2023-04-02T23:33:54.220Z,65.50
2023-04-02T23:36:24.599Z,65.70
2023-04-02T23:38:55.419Z,65.70
2023-04-02T23:41:24.301Z,65.50
2023-04-02T23:43:51.091Z,65.70
2023-04-02T23:46:17.919Z,65.90
2023-04-02T23:48:45.980Z,65.80
2023-04-02T23:51:13.647Z,65.90
2023-04-02T23:53:40.571Z,65.70
2023-04-02T23:56:07.467Z,66.10
2023-04-02T23:58:34.388Z,66.30
